Time;durP1;ratioP1;P1;durP2;ratioP2;P2;SDS_P1;SDS_P2;PMS_P1;PMS_P2;Temp;Humidity;BMP_temperature;BMP_pressure;BME280_temperature;BME280_humidity;BME280_pressure;Samples;Min_cycle;Max_cycle;Signal;HPM_P1;HPM_P2
2021/06/11 00:00:11;;;;;;;6.13;3.67;;;;;;;18.67;61.69;101064.88;5076826;28;20131;-71
2021/06/11 00:02:39;;;;;;;4.32;3.53;;;;;;;18.66;61.61;101057.03;5078570;28;20044;-72
2021/06/11 00:05:07;;;;;;;5.50;3.10;;;;;;;18.64;62.06;101064.28;5060478;27;20647;-70
2021/06/11 00:08:23;;;;;;;3.90;3.40;;;;;;;18.58;62.34;101067.50;5092133;27;20162;-71
2021/06/11 00:10:52;;;;;;;5.53;3.10;;;;;;;18.42;63.25;101065.31;5101033;28;20078;-71
2021/06/11 00:13:19;;;;;;;5.43;3.53;;;;;;;18.33;63.37;101063.44;5100147;28;20047;-71
2021/06/11 00:15:48;;;;;;;5.75;3.78;;;;;;;18.31;63.42;101068.03;5086103;28;20490;-72
2021/06/11 00:18:15;;;;;;;7.05;2.97;;;;;;;18.45;62.91;101071.19;5083315;28;20032;-71
2021/06/11 00:20:42;;;;;;;10.50;3.35;;;;;;;18.41;63.18;101068.94;5088469;28;20134;-71
2021/06/11 00:23:09;;;;;;;8.77;3.22;;;;;;;18.38;63.55;101064.72;5107441;28;20555;-71
2021/06/11 00:25:36;;;;;;;4.13;3.00;;;;;;;18.36;63.45;101071.97;5081716;28;20058;-70
2021/06/11 00:28:04;;;;;;;4.68;3.55;;;;;;;18.36;63.19;101069.31;5091064;28;20100;-70
2021/06/11 00:30:32;;;;;;;6.20;3.30;;;;;;;18.38;63.62;101071.88;5090214;28;20047;-71
2021/06/11 00:33:00;;;;;;;5.75;3.58;;;;;;;18.53;62.87;101062.56;5073917;28;20126;-71
2021/06/11 00:35:33;;;;;;;4.22;3.20;;;;;;;18.54;62.94;101071.41;5083429;28;20122;-70
2021/06/11 00:38:01;;;;;;;5.00;3.10;;;;;;;18.64;63.14;101065.16;5084928;28;20719;-69
2021/06/11 00:40:28;;;;;;;5.00;3.15;;;;;;;18.54;63.45;101066.06;5081722;28;20071;-71
2021/06/11 00:42:56;;;;;;;7.25;3.35;;;;;;;18.46;63.25;101064.03;5074811;28;20040;-70
2021/06/11 00:45:23;;;;;;;6.75;3.30;;;;;;;18.55;63.29;101059.75;5089048;28;20057;-71
2021/06/11 00:47:50;;;;;;;6.47;3.70;;;;;;;18.52;63.67;101060.03;5062760;28;20052;-70
2021/06/11 00:50:23;;;;;;;6.28;3.40;;;;;;;18.62;63.61;101051.09;5054777;28;20459;-72
2021/06/11 00:52:54;;;;;;;4.90;3.08;;;;;;;18.59;63.45;101061.19;5101948;27;20064;-71
2021/06/11 00:55:21;;;;;;;5.68;3.25;;;;;;;18.58;63.54;101056.84;5078307;28;20397;-71
2021/06/11 00:57:49;;;;;;;4.82;3.47;;;;;;;18.59;63.48;101054.03;5085353;28;20067;-71
2021/06/11 01:00:17;;;;;;;5.78;3.42;;;;;;;18.54;64.04;101053.56;5103841;28;20048;-72
2021/06/11 01:02:44;;;;;;;5.45;3.38;;;;;;;18.49;63.59;101058.47;5100283;28;20040;-72
2021/06/11 01:05:12;;;;;;;5.43;3.42;;;;;;;18.58;63.78;101056.84;5108403;27;20079;-70
2021/06/11 01:07:41;;;;;;;4.68;3.10;;;;;;;18.63;63.77;101057.28;5101195;27;20150;-70
2021/06/11 01:10:09;;;;;;;4.30;3.53;;;;;;;18.54;64.34;101058.91;5084029;28;20151;-70
2021/06/11 01:12:37;;;;;;;6.05;3.55;;;;;;;18.59;64.08;101055.84;5091550;27;20044;-71
2021/06/11 01:15:06;;;;;;;7.00;3.38;;;;;;;18.48;64.27;101062.94;5103896;27;20052;-69
2021/06/11 01:17:34;;;;;;;6.20;3.88;;;;;;;18.46;64.44;101056.03;5106825;28;20195;-71
2021/06/11 01:20:06;;;;;;;10.32;3.40;;;;;;;18.40;64.69;101061.91;5062152;28;20171;-71
2021/06/11 01:22:52;;;;;;;4.93;3.60;;;;;;;18.39;64.80;101060.22;5103272;28;20690;-71
2021/06/11 01:25:59;;;;;;;6.03;3.60;;;;;;;18.40;64.51;101059.25;5069442;28;20402;-72
2021/06/11 01:28:26;;;;;;;4.97;3.38;;;;;;;18.38;64.23;101055.88;5103674;28;20047;-70
2021/06/11 01:30:55;;;;;;;5.50;3.92;;;;;;;18.37;64.30;101056.84;5081989;28;20143;-71
2021/06/11 01:33:24;;;;;;;7.38;3.60;;;;;;;18.39;63.99;101061.06;5070191;28;20539;-71
2021/06/11 01:36:01;;;;;;;5.47;3.40;;;;;;;18.43;64.13;101053.66;5060355;28;20071;-70
2021/06/11 01:38:36;;;;;;;4.03;3.15;;;;;;;18.50;64.00;101052.16;5085924;27;20459;-70
2021/06/11 01:41:09;;;;;;;5.65;3.80;;;;;;;18.52;63.69;101046.69;5071701;28;20186;-69
2021/06/11 01:43:37;;;;;;;5.72;3.53;;;;;;;18.50;64.39;101051.31;5084398;28;20515;-70
2021/06/11 01:46:08;;;;;;;5.85;4.22;;;;;;;18.51;64.11;101047.66;5102244;28;20062;-68
2021/06/11 01:48:38;;;;;;;6.32;3.85;;;;;;;18.46;64.22;101050.72;5075944;28;20048;-69
2021/06/11 01:51:07;;;;;;;5.68;3.90;;;;;;;18.39;64.07;101046.91;5076419;27;20502;-70
2021/06/11 01:53:36;;;;;;;8.40;3.53;;;;;;;18.53;64.76;101043.91;5073827;28;20051;-71
2021/06/11 01:56:04;;;;;;;6.65;3.58;;;;;;;18.61;63.88;101044.09;5108071;27;20562;-70
2021/06/11 01:58:31;;;;;;;6.22;3.58;;;;;;;18.53;64.17;101043.06;5087075;28;20056;-69
2021/06/11 02:00:58;;;;;;;4.93;3.75;;;;;;;18.42;64.08;101042.16;5077992;28;20056;-70
2021/06/11 02:03:27;;;;;;;7.15;3.78;;;;;;;18.40;64.63;101040.59;5078881;28;20048;-69
2021/06/11 02:05:55;;;;;;;6.32;4.10;;;;;;;18.50;64.18;101046.81;5053173;28;20202;-69
2021/06/11 02:08:22;;;;;;;5.10;3.80;;;;;;;18.36;64.73;101047.16;5058480;28;20542;-69
2021/06/11 02:10:50;;;;;;;8.25;3.92;;;;;;;18.27;65.00;101047.94;5066872;28;20036;-70
2021/06/11 02:13:17;;;;;;;5.78;4.00;;;;;;;18.46;63.95;101043.59;5074619;28;20407;-70
2021/06/11 02:15:45;;;;;;;4.90;4.25;;;;;;;18.45;63.88;101041.88;5086280;28;20056;-70
2021/06/11 02:18:13;;;;;;;4.70;3.33;;;;;;;18.29;64.20;101043.34;5078512;28;20051;-71
2021/06/11 02:20:40;;;;;;;6.65;4.40;;;;;;;18.40;64.02;101041.44;5080045;28;20071;-70
2021/06/11 02:23:08;;;;;;;4.70;3.50;;;;;;;18.35;64.28;101042.81;5076477;28;20780;-69
2021/06/11 02:25:35;;;;;;;6.25;3.63;;;;;;;18.26;64.75;101048.91;5054959;28;20499;-69
2021/06/11 02:28:02;;;;;;;6.68;4.15;;;;;;;18.29;64.97;101041.50;5085796;28;20156;-71
2021/06/11 02:30:29;;;;;;;3.75;3.35;;;;;;;18.35;64.80;101045.47;5073682;28;20055;-69
2021/06/11 02:32:57;;;;;;;4.60;3.80;;;;;;;18.39;64.48;101046.91;5076247;28;20587;-70
2021/06/11 02:35:25;;;;;;;7.05;3.53;;;;;;;18.27;64.97;101048.78;5084834;28;20054;-69
2021/06/11 02:37:53;;;;;;;6.50;4.00;;;;;;;18.19;65.16;101046.78;5100456;27;20131;-70
2021/06/11 02:40:21;;;;;;;5.05;3.47;;;;;;;18.14;65.28;101048.13;5071028;28;20041;-70
2021/06/11 02:42:54;;;;;;;4.85;3.40;;;;;;;18.10;65.35;101046.69;5064512;28;20342;-69
2021/06/11 02:45:25;;;;;;;5.50;3.53;;;;;;;18.09;65.52;101051.16;5083048;28;20040;-70
2021/06/11 02:48:10;;;;;;;5.65;3.88;;;;;;;18.09;65.61;101045.84;5085774;28;20071;-69
2021/06/11 02:50:43;;;;;;;5.50;3.20;;;;;;;18.09;65.29;101043.16;5074913;28;20043;-70
2021/06/11 02:53:11;;;;;;;8.63;4.20;;;;;;;18.09;65.18;101047.66;5040599;28;20065;-70
2021/06/11 02:55:39;;;;;;;5.60;3.17;;;;;;;18.17;64.88;101053.19;5083656;28;20090;-70
2021/06/11 02:58:15;;;;;;;5.55;3.63;;;;;;;18.26;64.67;101048.91;5067134;28;20054;-71
2021/06/11 03:00:43;;;;;;;7.45;4.18;;;;;;;18.21;64.69;101051.97;5077470;28;20048;-72
2021/06/11 03:03:18;;;;;;;5.63;3.75;;;;;;;18.18;64.81;101050.38;5071944;28;20051;-71
2021/06/11 03:05:46;;;;;;;4.53;3.97;;;;;;;18.20;65.22;101056.47;5076113;28;20055;-71
2021/06/11 03:08:18;;;;;;;7.15;3.70;;;;;;;18.19;65.30;101054.78;5087531;27;20126;-71
2021/06/11 03:10:52;;;;;;;5.32;3.65;;;;;;;18.22;65.08;101059.81;5083941;28;20445;-72
2021/06/11 03:13:21;;;;;;;6.47;3.78;;;;;;;18.25;65.02;101064.06;5087441;28;20477;-71
2021/06/11 03:15:48;;;;;;;7.07;4.43;;;;;;;18.28;64.56;101065.59;5068708;28;20047;-70
2021/06/11 03:18:30;;;;;;;7.95;4.47;;;;;;;18.32;64.41;101069.72;5107367;28;20056;-71
2021/06/11 03:20:58;;;;;;;7.53;4.38;;;;;;;18.35;63.99;101072.13;5063386;28;20047;-71
2021/06/11 03:23:47;;;;;;;6.85;4.15;;;;;;;18.40;63.80;101067.25;5085540;28;20460;-71
2021/06/11 03:26:18;;;;;;;6.50;3.60;;;;;;;18.43;63.54;101067.84;5077394;28;20089;-71
2021/06/11 03:28:49;;;;;;;8.48;4.07;;;;;;;18.47;63.79;101066.59;5078252;27;20144;-71
2021/06/11 03:31:31;;;;;;;4.78;3.63;;;;;;;18.54;63.24;101071.41;5066629;28;20102;-71
2021/06/11 03:34:02;;;;;;;6.32;3.63;;;;;;;18.58;63.15;101068.34;5069262;28;20654;-71
2021/06/11 03:36:32;;;;;;;8.77;6.28;;;;;;;18.71;63.51;101073.50;5080966;28;20518;-69
2021/06/11 03:39:01;;;;;;;7.43;4.45;;;;;;;18.77;62.85;101064.97;5092298;28;20043;-71
2021/06/11 03:41:29;;;;;;;8.95;4.45;;;;;;;18.84;62.82;101062.63;5074840;28;20064;-71
2021/06/11 03:43:56;;;;;;;7.45;3.97;;;;;;;18.93;62.35;101060.00;5088637;28;20135;-69
2021/06/11 03:46:25;;;;;;;10.63;4.38;;;;;;;18.97;62.36;101068.59;5081928;28;20127;-70
2021/06/11 03:48:53;;;;;;;7.13;4.20;;;;;;;19.04;61.37;101063.53;5073380;28;20131;-69
2021/06/11 03:51:20;;;;;;;7.03;4.10;;;;;;;19.10;61.39;101063.03;5102370;28;20046;-70
2021/06/11 03:53:48;;;;;;;6.40;4.10;;;;;;;19.18;61.60;101064.03;5127571;28;20418;-71
2021/06/11 03:56:17;;;;;;;7.20;4.53;;;;;;;19.29;61.51;101054.22;5127506;28;20498;-70
2021/06/11 03:58:45;;;;;;;10.43;4.45;;;;;;;19.38;61.18;101056.06;5086775;28;20075;-71
2021/06/11 04:01:17;;;;;;;9.35;4.47;;;;;;;19.47;60.62;101053.41;5081324;28;20059;-72
2021/06/11 04:03:44;;;;;;;10.85;5.55;;;;;;;19.60;60.02;101053.22;5085895;28;20064;-69
2021/06/11 04:06:25;;;;;;;11.25;5.45;;;;;;;19.73;59.48;101045.78;5065453;28;20044;-69
2021/06/11 04:08:58;;;;;;;11.98;5.32;;;;;;;19.86;59.74;101058.03;5085591;28;20052;-73
2021/06/11 04:11:27;;;;;;;9.25;5.68;;;;;;;20.00;58.50;101049.56;5076656;28;20138;-71
2021/06/11 04:13:57;;;;;;;12.15;5.47;;;;;;;20.19;58.18;101049.56;5084839;28;20089;-71
2021/06/11 04:16:41;;;;;;;15.48;6.00;;;;;;;20.36;57.51;101049.81;5048068;28;20522;-69
2021/06/11 04:19:25;;;;;;;8.82;4.82;;;;;;;20.64;56.80;101051.63;5087831;28;20047;-69
2021/06/11 04:21:53;;;;;;;12.57;4.82;;;;;;;20.98;56.20;101043.91;5063678;28;20040;-72
2021/06/11 04:24:30;;;;;;;11.38;5.05;;;;;;;21.21;55.63;101049.69;5084037;28;20040;-69
2021/06/11 04:26:57;;;;;;;11.25;5.47;;;;;;;21.43;54.92;101042.25;5064007;28;20055;-69
2021/06/11 04:29:27;;;;;;;13.30;5.43;;;;;;;22.22;53.27;101039.69;5099993;28;20044;-68
2021/06/11 04:31:54;;;;;;;11.02;4.90;;;;;;;23.85;49.15;101033.38;5095361;28;20052;-67
2021/06/11 04:34:24;;;;;;;14.73;5.00;;;;;;;24.62;46.45;101039.25;5087189;28;20062;-68
2021/06/11 04:36:54;;;;;;;10.55;4.57;;;;;;;24.44;46.29;101037.59;5108137;28;20058;-67
2021/06/11 04:39:22;;;;;;;11.45;4.70;;;;;;;24.32;47.12;101038.09;5094059;28;20116;-70
2021/06/11 04:41:49;;;;;;;12.20;4.97;;;;;;;25.11;45.67;101050.72;5081076;28;20135;-69
2021/06/11 04:44:16;;;;;;;10.10;4.68;;;;;;;26.18;43.59;101043.66;5109280;27;20055;-70
2021/06/11 04:46:44;;;;;;;13.35;4.20;;;;;;;26.75;42.08;101036.91;5081085;28;20095;-67
2021/06/11 04:49:18;;;;;;;25.75;5.57;;;;;;;26.79;41.45;101038.16;5081798;28;20531;-71
2021/06/11 04:51:45;;;;;;;8.40;4.65;;;;;;;25.92;42.74;101041.34;5084922;27;20039;-71
2021/06/11 04:54:16;;;;;;;10.80;4.72;;;;;;;24.81;45.92;101046.09;5063087;28;20043;-68
2021/06/11 04:56:43;;;;;;;13.32;4.57;;;;;;;24.48;46.95;101038.94;5100664;27;20139;-68
2021/06/11 04:59:10;;;;;;;11.25;4.80;;;;;;;24.62;46.52;101042.78;5083877;28;20760;-67
2021/06/11 05:01:38;;;;;;;8.80;4.65;;;;;;;25.02;46.03;101046.34;5085710;28;20565;-68
2021/06/11 05:04:05;;;;;;;8.75;4.72;;;;;;;24.95;45.90;101045.41;5064935;28;20408;-67
2021/06/11 05:06:32;;;;;;;12.43;4.32;;;;;;;25.33;45.37;101042.88;5102868;27;20058;-70
2021/06/11 05:08:59;;;;;;;6.57;4.47;;;;;;;26.77;42.69;101035.66;5084915;28;20063;-68
2021/06/11 05:11:26;;;;;;;10.00;5.40;;;;;;;28.31;39.12;101039.06;5074320;28;20049;-70
2021/06/11 05:13:54;;;;;;;12.05;5.28;;;;;;;29.69;35.33;101035.44;5085936;28;20147;-70
2021/06/11 05:16:21;;;;;;;8.07;4.50;;;;;;;30.61;33.14;101035.63;5105367;27;20142;-71
2021/06/11 05:18:48;;;;;;;8.52;5.00;;;;;;;30.99;30.94;101042.06;5088499;28;20054;-72
2021/06/11 05:21:15;;;;;;;62.65;12.32;;;;;;;30.95;32.83;101037.25;5102166;28;20054;-71
2021/06/11 05:23:44;;;;;;;9.20;5.13;;;;;;;31.43;30.35;101040.44;5071230;28;20039;-69
2021/06/11 05:26:11;;;;;;;10.07;4.68;;;;;;;31.24;31.27;101036.69;5086103;27;20054;-70
2021/06/11 05:28:38;;;;;;;12.30;4.70;;;;;;;31.65;30.18;101038.19;5115787;27;20498;-70
2021/06/11 05:31:05;;;;;;;13.27;4.75;;;;;;;31.81;29.57;101044.16;5109878;27;20548;-70
2021/06/11 05:33:33;;;;;;;9.88;4.55;;;;;;;32.37;28.44;101037.84;5105228;27;20060;-71
2021/06/11 05:36:00;;;;;;;8.65;4.60;;;;;;;32.24;29.14;101038.81;5066109;28;20568;-71
2021/06/11 05:38:28;;;;;;;10.45;4.68;;;;;;;32.47;28.15;101044.50;5107326;28;20048;-70
2021/06/11 05:40:55;;;;;;;7.55;4.45;;;;;;;33.12;27.57;101041.28;5084992;28;20047;-70
2021/06/11 05:43:22;;;;;;;6.47;4.40;;;;;;;33.27;26.53;101041.69;5080614;28;20044;-71
2021/06/11 05:45:50;;;;;;;8.13;4.05;;;;;;;33.50;26.50;101032.84;5076868;22;20049;-80
2021/06/11 05:48:17;;;;;;;5.25;4.03;;;;;;;33.07;26.71;101046.59;5094342;28;20167;-78
2021/06/11 05:50:44;;;;;;;4.97;3.97;;;;;;;33.58;25.90;101033.53;5119231;28;20068;-81
2021/06/11 05:56:53;;;;;;;8.63;4.38;;;;;;;33.70;25.34;101037.97;5033866;28;20056;-77
2021/06/11 05:59:20;;;;;;;9.63;4.03;;;;;;;33.53;25.75;101036.16;5066817;28;20068;-80
2021/06/11 06:01:47;;;;;;;6.28;4.28;;;;;;;33.30;25.42;101034.13;5087402;28;20060;-80
2021/06/11 06:04:17;;;;;;;7.47;4.93;;;;;;;33.60;24.85;101034.16;5095079;28;20032;-80
2021/06/11 06:06:44;;;;;;;8.23;4.88;;;;;;;34.46;23.80;101028.16;5087727;28;20075;-78
2021/06/11 06:09:11;;;;;;;7.05;4.70;;;;;;;33.82;24.90;101032.56;5116788;28;20090;-79
2021/06/11 06:11:39;;;;;;;12.70;5.35;;;;;;;31.84;27.09;101028.25;5117130;28;20108;-79
2021/06/11 06:14:12;;;;;;;8.45;5.03;;;;;;;33.38;24.90;101034.63;5122081;28;20079;-80
2021/06/11 06:16:39;;;;;;;9.55;5.43;;;;;;;33.96;24.58;101019.56;5097117;28;20047;-81
2021/06/11 06:19:06;;;;;;;7.30;4.30;;;;;;;33.03;25.76;101029.00;5124388;28;20036;-79
2021/06/11 06:21:33;;;;;;;5.95;5.35;;;;;;;34.12;24.13;101027.03;5114030;28;20100;-79
2021/06/11 06:24:01;;;;;;;5.45;4.95;;;;;;;35.12;23.03;101020.53;5117876;28;20047;-78
2021/06/11 06:30:47;;;;;;;6.50;5.45;;;;;;;33.37;25.15;101021.22;5104797;28;20039;-79
2021/06/11 06:33:15;;;;;;;9.88;5.32;;;;;;;34.32;24.21;101015.75;5107586;28;20114;-79
2021/06/11 06:35:42;;;;;;;9.20;5.28;;;;;;;35.21;22.85;101016.31;5096398;28;20521;-79
2021/06/11 06:38:11;;;;;;;7.65;5.75;;;;;;;33.99;24.27;101010.88;5106779;28;20052;-81
2021/06/11 06:40:46;;;;;;;8.35;4.95;;;;;;;34.88;23.58;101016.19;5110010;28;20059;-79
2021/06/11 06:44:19;;;;;;;10.43;5.13;;;;;;;34.14;24.67;101018.63;5054268;28;20050;-81
2021/06/11 06:46:46;;;;;;;9.68;6.43;;;;;;;35.01;23.33;101018.66;5101928;28;20051;-79
2021/06/11 06:49:13;;;;;;;8.32;5.00;;;;;;;35.14;23.00;101017.56;5099256;28;20125;-81
2021/06/11 06:51:41;;;;;;;9.93;5.88;;;;;;;34.60;24.00;101019.69;5085579;28;20485;-80
2021/06/11 06:54:08;;;;;;;6.93;5.93;;;;;;;33.85;24.79;101020.31;5095948;28;20079;-78
2021/06/11 06:56:35;;;;;;;8.55;5.90;;;;;;;35.39;23.07;101011.72;5093481;28;20055;-81
2021/06/11 06:59:02;;;;;;;10.63;5.63;;;;;;;35.72;22.42;101011.81;5109892;28;20044;-83
2021/06/11 07:01:30;;;;;;;11.23;6.22;;;;;;;36.76;21.36;101019.47;5109213;28;20070;-81
2021/06/11 07:03:59;;;;;;;10.27;6.13;;;;;;;37.23;20.89;101015.38;5093138;28;20044;-79
2021/06/11 07:06:27;;;;;;;8.20;4.75;;;;;;;38.56;19.97;101011.03;5094832;28;20059;-80
2021/06/11 07:08:54;;;;;;;9.85;6.47;;;;;;;38.58;19.27;101012.38;5107016;28;20062;-79
2021/06/11 07:11:22;;;;;;;8.75;5.88;;;;;;;38.78;19.35;101010.88;5112536;28;20077;-79
2021/06/11 07:13:49;;;;;;;11.65;6.25;;;;;;;36.57;21.49;101009.91;5098182;28;20128;-81
2021/06/11 07:16:16;;;;;;;7.30;6.40;;;;;;;35.48;22.65;101013.03;5109584;28;20042;-81
2021/06/11 07:18:44;;;;;;;8.13;6.20;;;;;;;34.37;24.19;101023.25;5112097;28;20048;-80
2021/06/11 07:21:12;;;;;;;7.30;5.93;;;;;;;32.93;26.17;101012.38;5105760;28;20516;-79
2021/06/11 07:23:41;;;;;;;9.07;6.40;;;;;;;36.15;22.23;101015.81;5105839;28;20055;-80
2021/06/11 07:26:08;;;;;;;9.13;6.20;;;;;;;36.40;21.74;101020.03;5106944;28;20108;-78
2021/06/11 07:28:37;;;;;;;6.40;5.57;;;;;;;37.81;20.51;101018.41;5110289;28;20028;-78
2021/06/11 07:31:05;;;;;;;9.90;5.55;;;;;;;37.79;20.74;101015.94;5116617;28;20038;-81
2021/06/11 07:33:32;;;;;;;8.63;5.68;;;;;;;38.02;20.13;101020.28;5109589;28;20116;-80
2021/06/11 07:36:01;;;;;;;10.77;5.80;;;;;;;39.06;18.95;101015.91;5089370;28;20067;-80
2021/06/11 07:38:29;;;;;;;11.38;6.30;;;;;;;36.52;21.45;101018.03;5094116;28;20077;-81
2021/06/11 07:40:57;;;;;;;11.02;5.78;;;;;;;36.41;21.78;101014.28;5107572;28;20110;-78
2021/06/11 07:43:24;;;;;;;7.90;5.88;;;;;;;35.24;22.95;101013.09;5114498;28;20051;-79
2021/06/11 07:45:52;;;;;;;6.07;5.47;;;;;;;35.95;22.22;101013.59;5090046;28;20075;-79
2021/06/11 07:48:19;;;;;;;10.73;5.00;;;;;;;39.27;18.91;101007.72;5106533;28;20082;-79
2021/06/11 07:50:47;;;;;;;10.18;6.32;;;;;;;36.83;20.78;101012.94;5089031;28;20534;-77
2021/06/11 07:53:14;;;;;;;9.35;5.95;;;;;;;36.06;21.89;101011.00;5093198;28;20143;-79
2021/06/11 07:55:42;;;;;;;10.82;7.38;;;;;;;34.78;22.97;101013.25;5107326;28;20130;-79
2021/06/11 07:58:09;;;;;;;11.10;5.55;;;;;;;36.43;22.09;101008.53;5114274;28;20103;-79
2021/06/11 08:00:36;;;;;;;8.07;4.78;;;;;;;37.60;20.62;101007.25;5094646;28;20119;-78
2021/06/11 08:03:04;;;;;;;7.10;6.18;;;;;;;36.51;21.11;101008.97;5101525;28;20059;-78
2021/06/11 08:05:31;;;;;;;8.93;6.63;;;;;;;34.63;23.44;101003.66;5121151;28;20051;-79
2021/06/11 08:07:58;;;;;;;8.90;5.97;;;;;;;36.05;22.50;101010.19;5122869;28;20054;-81
2021/06/11 08:10:26;;;;;;;9.27;7.15;;;;;;;32.42;26.04;101008.94;5088071;28;20040;-80
2021/06/11 08:12:54;;;;;;;10.75;6.15;;;;;;;31.65;27.55;101005.50;5094301;28;20139;-77
2021/06/11 08:15:22;;;;;;;13.27;6.28;;;;;;;32.54;27.04;101006.25;5119972;28;20044;-78
2021/06/11 08:17:49;;;;;;;10.27;5.78;;;;;;;33.08;26.46;101007.34;5112921;28;20039;-78
2021/06/11 08:20:17;;;;;;;7.82;6.45;;;;;;;32.79;26.55;101002.66;5108133;28;20118;-80
2021/06/11 08:22:47;;;;;;;10.50;6.80;;;;;;;32.00;27.68;101007.81;5113262;28;20131;-78
2021/06/11 08:25:15;;;;;;;9.27;4.97;;;;;;;31.11;29.27;101000.56;5096376;28;20459;-80
2021/06/11 08:27:43;;;;;;;8.98;5.32;;;;;;;31.34;29.41;101002.78;5117072;28;20544;-79
2021/06/11 08:30:11;;;;;;;8.50;6.13;;;;;;;31.86;28.08;100998.91;5094133;28;20115;-80
2021/06/11 08:32:53;;;;;;;7.35;6.35;;;;;;;30.82;29.53;100999.25;5075974;28;20064;-81
2021/06/11 08:35:21;;;;;;;9.63;6.40;;;;;;;31.06;28.78;101001.22;5116457;28;20069;-80
2021/06/11 08:37:48;;;;;;;6.93;5.32;;;;;;;29.75;31.85;101003.91;5109100;28;20164;-79
2021/06/11 08:40:17;;;;;;;10.60;5.10;;;;;;;31.07;29.41;101004.78;5100729;28;20044;-79
2021/06/11 08:42:45;;;;;;;7.95;4.70;;;;;;;30.50;29.95;101001.81;5113687;28;20095;-80
2021/06/11 08:45:13;;;;;;;10.20;4.63;;;;;;;30.73;29.94;101006.81;5090273;28;20048;-81
2021/06/11 08:47:46;;;;;;;9.13;4.50;;;;;;;30.54;29.95;101003.06;5108212;28;20048;-77
2021/06/11 08:50:16;;;;;;;9.57;4.60;;;;;;;30.56;30.35;101003.66;5101833;28;20484;-77
2021/06/11 08:52:44;;;;;;;10.00;4.60;;;;;;;30.08;30.54;101005.78;5104446;28;20067;-77
2021/06/11 08:55:11;;;;;;;7.32;4.40;;;;;;;29.70;31.28;101007.25;5078469;28;20048;-80
2021/06/11 08:57:39;;;;;;;5.90;4.80;;;;;;;28.52;33.60;101006.53;5094332;28;20139;-80
2021/06/11 09:00:07;;;;;;;14.32;5.60;;;;;;;29.17;32.52;101017.91;5092902;28;20067;-81
2021/06/11 09:03:12;;;;;;;4.32;3.92;;;;;;;28.37;33.42;101021.19;5099872;28;20545;-80
2021/06/11 09:05:42;;;;;;;6.93;4.32;;;;;;;27.66;35.15;101010.34;5075408;28;20082;-79
2021/06/11 09:08:21;;;;;;;9.25;3.67;;;;;;;28.49;33.82;101006.91;5112048;28;20039;-77
2021/06/11 09:10:50;;;;;;;17.02;3.45;;;;;;;29.32;31.89;101009.66;5114034;28;20074;-77
2021/06/11 09:13:26;;;;;;;19.25;6.28;;;;;;;28.48;33.19;101010.66;5088352;28;20055;-80
2021/06/11 09:16:25;;;;;;;8.45;4.78;;;;;;;28.53;33.97;101010.06;5085080;28;20086;-80
2021/06/11 09:19:05;;;;;;;9.40;3.70;;;;;;;29.93;31.68;101003.28;5103626;28;20055;-77
2021/06/11 09:21:42;;;;;;;4.95;3.47;;;;;;;29.64;31.81;101001.81;5075386;28;20151;-78
2021/06/11 09:24:26;;;;;;;4.95;3.03;;;;;;;28.99;32.12;101009.50;5105182;28;20048;-79
2021/06/11 09:26:56;;;;;;;6.05;3.13;;;;;;;29.22;31.35;100998.31;5092154;28;20043;-77
2021/06/11 09:29:28;;;;;;;7.82;3.42;;;;;;;28.18;32.99;100999.16;5093736;28;20054;-79
2021/06/11 09:32:28;;;;;;;9.18;3.30;;;;;;;28.58;32.67;101001.34;5108552;28;20246;-77
2021/06/11 09:34:57;;;;;;;5.45;3.67;;;;;;;28.56;32.59;101004.28;5071739;28;20056;-80
2021/06/11 09:37:34;;;;;;;11.38;3.42;;;;;;;28.02;33.64;101002.19;5087930;28;20110;-79
2021/06/11 09:40:10;;;;;;;6.82;3.60;;;;;;;28.13;33.09;101000.81;5094882;28;20048;-78
2021/06/11 09:42:40;;;;;;;23.23;5.00;;;;;;;28.75;32.21;100995.41;5095760;28;20115;-79
2021/06/11 09:45:10;;;;;;;14.27;3.85;;;;;;;28.48;32.09;100997.13;5097967;28;20147;-79
2021/06/11 09:47:51;;;;;;;10.57;3.40;;;;;;;28.19;32.39;100992.75;5112283;28;20074;-78
2021/06/11 09:50:30;;;;;;;6.55;3.20;;;;;;;28.80;31.64;100993.97;5099180;28;20050;-78
2021/06/11 09:53:01;;;;;;;4.90;3.17;;;;;;;28.76;30.87;100997.06;5086211;28;20438;-79
2021/06/11 09:55:49;;;;;;;6.38;3.00;;;;;;;28.17;30.74;100988.56;5109938;28;20048;-78
2021/06/11 09:58:18;;;;;;;5.25;3.10;;;;;;;27.45;31.12;100990.38;5114054;28;20498;-79
2021/06/11 10:00:49;;;;;;;7.80;3.00;;;;;;;28.16;30.96;100985.00;5107547;28;20142;-79
2021/06/11 10:03:19;;;;;;;8.38;2.90;;;;;;;28.65;30.26;100984.09;5116652;28;20199;-78
2021/06/11 10:05:47;;;;;;;8.45;2.42;;;;;;;28.88;28.85;100981.09;5087999;28;20455;-78
2021/06/11 10:08:16;;;;;;;5.78;2.53;;;;;;;28.72;26.65;100981.41;5103770;28;20127;-80
2021/06/11 10:10:45;;;;;;;5.35;2.42;;;;;;;27.63;27.78;100975.56;5086225;28;20036;-80
2021/06/11 10:13:13;;;;;;;13.77;2.45;;;;;;;28.05;29.81;100985.53;5121088;28;20565;-80
2021/06/11 10:15:45;;;;;;;8.95;2.58;;;;;;;28.07;30.97;100983.47;5085550;28;20055;-77
2021/06/11 10:18:15;;;;;;;7.47;3.33;;;;;;;28.37;31.04;100983.28;5086597;28;20039;-78
2021/06/11 10:20:44;;;;;;;4.93;2.72;;;;;;;28.23;30.58;100980.50;5092315;28;20035;-77
2021/06/11 10:23:16;;;;;;;11.38;3.08;;;;;;;28.75;30.35;100976.44;5108024;28;20058;-78
2021/06/11 10:25:45;;;;;;;4.75;2.92;;;;;;;28.48;30.10;100982.75;5102652;28;20118;-78
2021/06/11 10:28:16;;;;;;;7.88;2.97;;;;;;;28.84;29.48;100977.09;5083621;28;20063;-77
2021/06/11 10:30:43;;;;;;;3.38;2.40;;;;;;;29.23;29.90;100976.44;5088764;28;20385;-79
2021/06/11 10:33:11;;;;;;;7.72;2.55;;;;;;;29.42;29.77;100976.69;5090411;28;20048;-78
2021/06/11 10:35:48;;;;;;;5.40;2.22;;;;;;;29.35;29.39;100973.13;5108610;28;20062;-77
2021/06/11 10:38:34;;;;;;;6.72;2.42;;;;;;;29.29;28.19;100977.50;5109659;28;20718;-78
2021/06/11 10:41:04;;;;;;;2.78;1.90;;;;;;;28.51;28.99;100980.50;5081730;28;20126;-80
2021/06/11 10:43:38;;;;;;;2.65;1.95;;;;;;;28.36;29.48;100976.22;5069331;28;20057;-79
2021/06/11 10:46:29;;;;;;;7.35;2.00;;;;;;;28.54;30.13;100973.81;5105291;28;20102;-79
2021/06/11 10:49:04;;;;;;;6.63;1.90;;;;;;;28.20;31.10;100982.75;5079331;28;20066;-77
2021/06/11 10:51:45;;;;;;;16.17;2.38;;;;;;;28.71;31.17;100977.88;5089415;28;20101;-80
2021/06/11 10:54:24;;;;;;;6.07;2.38;;;;;;;28.80;30.85;100977.72;5110268;28;20085;-78
2021/06/11 10:56:57;;;;;;;6.30;2.20;;;;;;;29.11;30.23;100963.69;5103634;28;20116;-78
2021/06/11 10:59:35;;;;;;;11.77;2.13;;;;;;;28.31;31.45;100976.78;5086409;28;20016;-76
2021/06/11 11:02:03;;;;;;;8.93;1.83;;;;;;;28.70;31.16;100980.78;5107699;28;20048;-78
2021/06/11 11:04:33;;;;;;;3.05;1.83;;;;;;;28.19;31.51;100981.06;5090123;28;20079;-79
2021/06/11 11:07:28;;;;;;;6.88;2.30;;;;;;;27.87;32.43;100971.66;5081363;28;20093;-79
2021/06/11 11:10:05;;;;;;;2.13;1.92;;;;;;;27.37;33.65;100973.44;5123796;28;20052;-76
2021/06/11 11:12:57;;;;;;;4.75;1.95;;;;;;;27.33;33.58;100974.84;5115574;28;20490;-79
2021/06/11 11:15:36;;;;;;;5.65;2.75;;;;;;;27.45;33.78;100970.63;5104260;28;20152;-77
2021/06/11 11:18:06;;;;;;;7.85;2.13;;;;;;;27.86;33.56;100969.97;5113506;28;20152;-77
2021/06/11 11:20:35;;;;;;;2.75;1.90;;;;;;;28.14;32.28;100973.53;5088194;28;20414;-78
2021/06/11 11:23:08;;;;;;;4.40;2.30;;;;;;;28.21;32.42;100966.31;5086163;28;20143;-79
2021/06/11 11:25:39;;;;;;;2.40;2.00;;;;;;;28.21;32.13;100963.59;5104922;28;20047;-78
2021/06/11 11:28:08;;;;;;;2.35;1.90;;;;;;;28.38;32.18;100968.75;5107429;28;20514;-78
2021/06/11 11:30:37;;;;;;;7.80;2.20;;;;;;;27.92;32.57;100964.63;5100433;28;20083;-79
2021/06/11 11:33:05;;;;;;;6.80;2.00;;;;;;;27.63;33.32;100962.06;5074334;28;20048;-80
2021/06/11 11:35:35;;;;;;;8.48;2.10;;;;;;;27.58;33.82;100961.81;5094889;28;20153;-76
2021/06/11 11:38:05;;;;;;;5.55;2.00;;;;;;;27.55;33.11;100952.19;5075508;28;20131;-80
2021/06/11 11:40:32;;;;;;;3.08;1.67;;;;;;;27.72;32.82;100964.44;5088168;28;20075;-79
2021/06/11 11:43:01;;;;;;;5.22;2.40;;;;;;;28.10;31.69;100947.91;5113683;28;20074;-80
2021/06/11 11:45:30;;;;;;;3.67;1.65;;;;;;;28.49;31.43;100952.75;5106890;28;20047;-76
2021/06/11 11:48:00;;;;;;;3.63;1.52;;;;;;;28.14;31.06;100949.16;5080446;28;20036;-79